sensor_id;sensor_type;location;lat;lon;timestamp;temperature;humidity
21778;DHT22;11050;52.222;20.916;2022-09-01T00:01:39;13.00;99.90
21778;DHT22;11050;52.222;20.916;2022-09-01T00:04:09;13.00;99.90
21778;DHT22;11050;52.222;20.916;2022-09-01T00:06:38;12.90;99.90
21778;DHT22;11050;52.222;20.916;2022-09-01T00:09:09;12.90;99.90
21778;DHT22;11050;52.222;20.916;2022-09-01T00:11:38;12.80;99.90
21778;DHT22;11050;52.222;20.916;2022-09-01T00:14:08;12.70;99.90
21778;DHT22;11050;52.222;20.916;2022-09-01T00:16:37;12.70;99.90
21778;DHT22;11050;52.222;20.916;2022-09-01T00:19:04;12.70;99.90
21778;DHT22;11050;52.222;20.916;2022-09-01T00:21:37;12.60;99.90
21778;DHT22;11050;52.222;20.916;2022-09-01T00:24:05;12.60;99.90
21778;DHT22;11050;52.222;20.916;2022-09-01T00:26:32;12.50;99.90
21778;DHT22;11050;52.222;20.916;2022-09-01T00:28:58;12.50;99.90
21778;DHT22;11050;52.222;20.916;2022-09-01T00:31:25;12.50;99.90
21778;DHT22;11050;52.222;20.916;2022-09-01T00:33:52;12.40;99.90
21778;DHT22;11050;52.222;20.916;2022-09-01T00:36:19;12.40;99.90
21778;DHT22;11050;52.222;20.916;2022-09-01T00:38:47;12.40;99.90
21778;DHT22;11050;52.222;20.916;2022-09-01T00:41:14;12.30;99.90
21778;DHT22;11050;52.222;20.916;2022-09-01T00:43:49;12.30;99.90
21778;DHT22;11050;52.222;20.916;2022-09-01T00:46:27;12.20;99.90
21778;DHT22;11050;52.222;20.916;2022-09-01T00:48:59;12.20;99.90
21778;DHT22;11050;52.222;20.916;2022-09-01T00:51:34;12.10;99.90
21778;DHT22;11050;52.222;20.916;2022-09-01T00:54:04;12.10;99.90
21778;DHT22;11050;52.222;20.916;2022-09-01T00:56:34;12.00;99.90
21778;DHT22;11050;52.222;20.916;2022-09-01T00:59:05;11.90;99.90
21778;DHT22;11050;52.222;20.916;2022-09-01T01:01:33;11.90;99.90
21778;DHT22;11050;52.222;20.916;2022-09-01T01:04:02;11.80;99.90
21778;DHT22;11050;52.222;20.916;2022-09-01T01:06:29;11.80;99.90
21778;DHT22;11050;52.222;20.916;2022-09-01T01:08:58;11.80;99.90
21778;DHT22;11050;52.222;20.916;2022-09-01T01:11:30;11.70;99.90
21778;DHT22;11050;52.222;20.916;2022-09-01T01:14:15;11.70;99.90
21778;DHT22;11050;52.222;20.916;2022-09-01T01:16:44;11.60;99.90
21778;DHT22;11050;52.222;20.916;2022-09-01T01:19:33;11.60;99.90
21778;DHT22;11050;52.222;20.916;2022-09-01T01:25:32;11.50;99.90
21778;DHT22;11050;52.222;20.916;2022-09-01T01:28:20;11.40;99.90
21778;DHT22;11050;52.222;20.916;2022-09-01T01:30:58;11.40;99.90
21778;DHT22;11050;52.222;20.916;2022-09-01T01:33:35;11.40;99.90
21778;DHT22;11050;52.222;20.916;2022-09-01T01:36:11;11.30;99.90
21778;DHT22;11050;52.222;20.916;2022-09-01T01:38:46;11.30;99.90
21778;DHT22;11050;52.222;20.916;2022-09-01T01:41:15;11.20;99.90
21778;DHT22;11050;52.222;20.916;2022-09-01T01:43:44;11.20;99.90
21778;DHT22;11050;52.222;20.916;2022-09-01T01:46:12;11.20;99.90
21778;DHT22;11050;52.222;20.916;2022-09-01T01:48:41;11.20;99.90
21778;DHT22;11050;52.222;20.916;2022-09-01T01:51:08;11.10;99.90
21778;DHT22;11050;52.222;20.916;2022-09-01T01:53:37;11.00;99.90
21778;DHT22;11050;52.222;20.916;2022-09-01T01:56:03;11.00;99.90
21778;DHT22;11050;52.222;20.916;2022-09-01T01:58:30;11.00;99.90
21778;DHT22;11050;52.222;20.916;2022-09-01T02:00:58;11.00;99.90
21778;DHT22;11050;52.222;20.916;2022-09-01T02:03:31;10.90;99.90
21778;DHT22;11050;52.222;20.916;2022-09-01T02:06:07;10.90;99.90
21778;DHT22;11050;52.222;20.916;2022-09-01T02:08:35;10.90;99.90
21778;DHT22;11050;52.222;20.916;2022-09-01T02:11:04;10.80;99.90
21778;DHT22;11050;52.222;20.916;2022-09-01T02:13:31;10.80;99.90
21778;DHT22;11050;52.222;20.916;2022-09-01T02:16:05;10.80;99.90
21778;DHT22;11050;52.222;20.916;2022-09-01T02:18:42;10.70;99.90
21778;DHT22;11050;52.222;20.916;2022-09-01T02:21:14;10.70;99.90
21778;DHT22;11050;52.222;20.916;2022-09-01T02:23:45;10.70;99.90
21778;DHT22;11050;52.222;20.916;2022-09-01T02:26:25;10.70;99.90
21778;DHT22;11050;52.222;20.916;2022-09-01T02:28:57;10.60;99.90
21778;DHT22;11050;52.222;20.916;2022-09-01T02:31:33;10.60;99.90
21778;DHT22;11050;52.222;20.916;2022-09-01T02:34:01;10.60;99.90
21778;DHT22;11050;52.222;20.916;2022-09-01T02:36:28;10.60;99.90
21778;DHT22;11050;52.222;20.916;2022-09-01T02:38:57;10.50;99.90
21778;DHT22;11050;52.222;20.916;2022-09-01T02:41:23;10.50;99.90
21778;DHT22;11050;52.222;20.916;2022-09-01T02:43:49;10.40;99.90
21778;DHT22;11050;52.222;20.916;2022-09-01T02:46:15;10.40;99.90
21778;DHT22;11050;52.222;20.916;2022-09-01T02:48:43;10.40;99.90
21778;DHT22;11050;52.222;20.916;2022-09-01T02:51:16;10.30;99.90
21778;DHT22;11050;52.222;20.916;2022-09-01T02:53:44;10.30;99.90
21778;DHT22;11050;52.222;20.916;2022-09-01T02:56:17;10.30;99.90
21778;DHT22;11050;52.222;20.916;2022-09-01T02:58:48;10.20;99.90
21778;DHT22;11050;52.222;20.916;2022-09-01T03:01:19;10.20;99.90
21778;DHT22;11050;52.222;20.916;2022-09-01T03:03:58;10.20;99.90
21778;DHT22;11050;52.222;20.916;2022-09-01T03:06:28;10.10;99.90
21778;DHT22;11050;52.222;20.916;2022-09-01T03:08:59;10.10;99.90
21778;DHT22;11050;52.222;20.916;2022-09-01T03:11:27;10.00;99.90
21778;DHT22;11050;52.222;20.916;2022-09-01T03:13:55;10.00;99.90
21778;DHT22;11050;52.222;20.916;2022-09-01T03:16:21;10.00;99.90
21778;DHT22;11050;52.222;20.916;2022-09-01T03:18:47;10.00;99.90
21778;DHT22;11050;52.222;20.916;2022-09-01T03:21:13;10.00;99.90
21778;DHT22;11050;52.222;20.916;2022-09-01T03:23:42;10.00;99.90
21778;DHT22;11050;52.222;20.916;2022-09-01T03:26:11;9.90;99.90
21778;DHT22;11050;52.222;20.916;2022-09-01T03:28:38;9.90;99.90
21778;DHT22;11050;52.222;20.916;2022-09-01T03:31:04;9.90;99.90
21778;DHT22;11050;52.222;20.916;2022-09-01T03:33:31;9.90;99.90
21778;DHT22;11050;52.222;20.916;2022-09-01T03:35:57;9.90;99.90
21778;DHT22;11050;52.222;20.916;2022-09-01T03:38:24;9.90;99.90
21778;DHT22;11050;52.222;20.916;2022-09-01T03:40:57;9.80;99.90
21778;DHT22;11050;52.222;20.916;2022-09-01T03:43:28;9.90;99.90
21778;DHT22;11050;52.222;20.916;2022-09-01T03:45:56;9.90;99.90
21778;DHT22;11050;52.222;20.916;2022-09-01T03:48:26;9.80;99.90
21778;DHT22;11050;52.222;20.916;2022-09-01T03:50:55;9.90;99.90
21778;DHT22;11050;52.222;20.916;2022-09-01T03:53:28;9.80;99.90
21778;DHT22;11050;52.222;20.916;2022-09-01T03:55:57;9.80;99.90
21778;DHT22;11050;52.222;20.916;2022-09-01T03:58:25;9.80;99.90
21778;DHT22;11050;52.222;20.916;2022-09-01T04:00:54;9.80;99.90
21778;DHT22;11050;52.222;20.916;2022-09-01T04:03:26;9.80;99.90
21778;DHT22;11050;52.222;20.916;2022-09-01T04:05:56;9.80;99.90
21778;DHT22;11050;52.222;20.916;2022-09-01T04:08:24;9.80;99.90
21778;DHT22;11050;52.222;20.916;2022-09-01T04:10:56;9.80;99.90
21778;DHT22;11050;52.222;20.916;2022-09-01T04:13:36;9.80;99.90
21778;DHT22;11050;52.222;20.916;2022-09-01T04:16:04;9.80;99.90
21778;DHT22;11050;52.222;20.916;2022-09-01T04:18:56;9.80;99.90
21778;DHT22;11050;52.222;20.916;2022-09-01T04:21:22;9.80;99.90
21778;DHT22;11050;52.222;20.916;2022-09-01T04:23:48;9.80;99.90
21778;DHT22;11050;52.222;20.916;2022-09-01T04:26:13;9.80;99.90
21778;DHT22;11050;52.222;20.916;2022-09-01T04:28:46;9.80;99.90
21778;DHT22;11050;52.222;20.916;2022-09-01T04:31:19;9.90;99.90
21778;DHT22;11050;52.222;20.916;2022-09-01T04:33:48;9.90;99.90
21778;DHT22;11050;52.222;20.916;2022-09-01T04:36:25;10.00;99.90
21778;DHT22;11050;52.222;20.916;2022-09-01T04:38:59;10.00;99.90
21778;DHT22;11050;52.222;20.916;2022-09-01T04:41:35;10.00;99.90
21778;DHT22;11050;52.222;20.916;2022-09-01T04:44:03;10.10;99.90
21778;DHT22;11050;52.222;20.916;2022-09-01T04:46:33;10.10;99.90
21778;DHT22;11050;52.222;20.916;2022-09-01T04:49:03;10.20;99.90
21778;DHT22;11050;52.222;20.916;2022-09-01T04:51:48;10.20;99.90
21778;DHT22;11050;52.222;20.916;2022-09-01T04:54:15;10.20;99.90
21778;DHT22;11050;52.222;20.916;2022-09-01T04:56:44;10.30;99.90
21778;DHT22;11050;52.222;20.916;2022-09-01T04:59:19;10.30;99.90
21778;DHT22;11050;52.222;20.916;2022-09-01T05:01:48;10.40;99.90
21778;DHT22;11050;52.222;20.916;2022-09-01T05:04:26;10.50;99.90
21778;DHT22;11050;52.222;20.916;2022-09-01T05:06:57;10.50;99.90
21778;DHT22;11050;52.222;20.916;2022-09-01T05:09:32;10.60;99.90
21778;DHT22;11050;52.222;20.916;2022-09-01T05:12:04;10.70;99.90
21778;DHT22;11050;52.222;20.916;2022-09-01T05:14:46;10.80;99.90
21778;DHT22;11050;52.222;20.916;2022-09-01T05:17:13;10.80;99.90
21778;DHT22;11050;52.222;20.916;2022-09-01T05:19:45;10.90;99.90
21778;DHT22;11050;52.222;20.916;2022-09-01T05:22:12;11.00;99.90
21778;DHT22;11050;52.222;20.916;2022-09-01T05:24:40;11.10;99.90
21778;DHT22;11050;52.222;20.916;2022-09-01T05:27:06;11.20;99.90
21778;DHT22;11050;52.222;20.916;2022-09-01T05:29:33;11.20;99.90
21778;DHT22;11050;52.222;20.916;2022-09-01T05:32:00;11.30;99.90
21778;DHT22;11050;52.222;20.916;2022-09-01T05:34:33;11.40;99.90
21778;DHT22;11050;52.222;20.916;2022-09-01T05:37:02;11.50;99.90
21778;DHT22;11050;52.222;20.916;2022-09-01T05:39:29;11.50;99.90
21778;DHT22;11050;52.222;20.916;2022-09-01T05:41:57;11.60;99.90
21778;DHT22;11050;52.222;20.916;2022-09-01T05:44:26;11.70;99.90
21778;DHT22;11050;52.222;20.916;2022-09-01T05:46:51;11.80;99.90
21778;DHT22;11050;52.222;20.916;2022-09-01T05:49:18;11.80;99.90
21778;DHT22;11050;52.222;20.916;2022-09-01T05:51:47;11.90;99.90
21778;DHT22;11050;52.222;20.916;2022-09-01T05:54:17;12.00;99.90
21778;DHT22;11050;52.222;20.916;2022-09-01T05:56:47;12.10;99.90
21778;DHT22;11050;52.222;20.916;2022-09-01T05:59:14;12.20;99.90
21778;DHT22;11050;52.222;20.916;2022-09-01T06:01:40;12.30;99.90
21778;DHT22;11050;52.222;20.916;2022-09-01T06:04:08;12.40;99.90
21778;DHT22;11050;52.222;20.916;2022-09-01T06:06:40;12.50;99.90
21778;DHT22;11050;52.222;20.916;2022-09-01T06:09:12;12.60;99.90
21778;DHT22;11050;52.222;20.916;2022-09-01T06:11:43;12.70;99.90
21778;DHT22;11050;52.222;20.916;2022-09-01T06:14:14;12.80;99.90
21778;DHT22;11050;52.222;20.916;2022-09-01T06:16:42;12.90;99.90
21778;DHT22;11050;52.222;20.916;2022-09-01T06:19:10;13.00;99.90
21778;DHT22;11050;52.222;20.916;2022-09-01T06:21:40;13.20;99.90
21778;DHT22;11050;52.222;20.916;2022-09-01T06:24:06;13.20;99.90
21778;DHT22;11050;52.222;20.916;2022-09-01T06:26:35;13.40;99.90
21778;DHT22;11050;52.222;20.916;2022-09-01T06:29:07;13.50;99.90
21778;DHT22;11050;52.222;20.916;2022-09-01T06:31:35;13.60;99.90
21778;DHT22;11050;52.222;20.916;2022-09-01T06:34:07;13.70;99.90
21778;DHT22;11050;52.222;20.916;2022-09-01T06:36:36;13.90;99.90
21778;DHT22;11050;52.222;20.916;2022-09-01T06:39:05;14.00;99.90
21778;DHT22;11050;52.222;20.916;2022-09-01T06:41:32;14.10;99.90
21778;DHT22;11050;52.222;20.916;2022-09-01T06:43:59;14.20;99.90
21778;DHT22;11050;52.222;20.916;2022-09-01T06:46:26;14.30;99.90
21778;DHT22;11050;52.222;20.916;2022-09-01T06:48:53;14.50;99.90
21778;DHT22;11050;52.222;20.916;2022-09-01T06:51:25;14.60;99.90
21778;DHT22;11050;52.222;20.916;2022-09-01T06:53:54;14.70;99.90
21778;DHT22;11050;52.222;20.916;2022-09-01T06:56:26;14.80;99.90
21778;DHT22;11050;52.222;20.916;2022-09-01T06:58:56;14.90;99.90
21778;DHT22;11050;52.222;20.916;2022-09-01T07:01:23;15.10;99.90
21778;DHT22;11050;52.222;20.916;2022-09-01T07:03:51;15.10;99.90
21778;DHT22;11050;52.222;20.916;2022-09-01T07:06:21;15.30;99.90
21778;DHT22;11050;52.222;20.916;2022-09-01T07:08:55;15.50;99.90
21778;DHT22;11050;52.222;20.916;2022-09-01T07:11:31;15.60;99.90
21778;DHT22;11050;52.222;20.916;2022-09-01T07:14:02;15.70;99.90
21778;DHT22;11050;52.222;20.916;2022-09-01T07:16:33;15.90;99.90
21778;DHT22;11050;52.222;20.916;2022-09-01T07:19:04;16.00;99.90
21778;DHT22;11050;52.222;20.916;2022-09-01T07:21:34;16.20;99.90
21778;DHT22;11050;52.222;20.916;2022-09-01T07:24:00;16.30;99.90
21778;DHT22;11050;52.222;20.916;2022-09-01T07:26:28;16.40;99.90
21778;DHT22;11050;52.222;20.916;2022-09-01T07:28:56;16.50;99.90
21778;DHT22;11050;52.222;20.916;2022-09-01T07:31:28;16.60;99.90
21778;DHT22;11050;52.222;20.916;2022-09-01T07:34:02;16.70;99.90
21778;DHT22;11050;52.222;20.916;2022-09-01T07:36:31;16.80;99.90
21778;DHT22;11050;52.222;20.916;2022-09-01T07:38:58;16.90;99.90
21778;DHT22;11050;52.222;20.916;2022-09-01T07:41:26;17.00;99.90
21778;DHT22;11050;52.222;20.916;2022-09-01T07:43:53;17.10;99.90
21778;DHT22;11050;52.222;20.916;2022-09-01T07:46:22;17.20;99.90
21778;DHT22;11050;52.222;20.916;2022-09-01T07:48:52;17.20;99.90
21778;DHT22;11050;52.222;20.916;2022-09-01T07:51:21;17.20;99.90
21778;DHT22;11050;52.222;20.916;2022-09-01T07:53:48;17.30;99.90
21778;DHT22;11050;52.222;20.916;2022-09-01T07:56:17;17.30;99.90
21778;DHT22;11050;52.222;20.916;2022-09-01T07:58:46;17.40;99.90
21778;DHT22;11050;52.222;20.916;2022-09-01T08:01:19;17.40;99.90
21778;DHT22;11050;52.222;20.916;2022-09-01T08:03:50;17.50;99.90
21778;DHT22;11050;52.222;20.916;2022-09-01T08:06:25;17.70;99.90
21778;DHT22;11050;52.222;20.916;2022-09-01T08:08:54;17.80;99.90
21778;DHT22;11050;52.222;20.916;2022-09-01T08:11:27;17.80;99.90
21778;DHT22;11050;52.222;20.916;2022-09-01T08:13:55;17.90;99.90
21778;DHT22;11050;52.222;20.916;2022-09-01T08:16:29;18.00;99.90
21778;DHT22;11050;52.222;20.916;2022-09-01T08:18:56;18.10;99.90
21778;DHT22;11050;52.222;20.916;2022-09-01T08:21:23;18.20;99.90
21778;DHT22;11050;52.222;20.916;2022-09-01T08:23:51;18.30;99.90
21778;DHT22;11050;52.222;20.916;2022-09-01T08:26:22;18.50;99.90
21778;DHT22;11050;52.222;20.916;2022-09-01T08:28:50;18.70;99.90
21778;DHT22;11050;52.222;20.916;2022-09-01T08:31:19;18.90;99.90
21778;DHT22;11050;52.222;20.916;2022-09-01T08:33:47;18.90;98.10
21778;DHT22;11050;52.222;20.916;2022-09-01T08:36:14;18.80;98.10
21778;DHT22;11050;52.222;20.916;2022-09-01T08:38:41;18.60;99.90
21778;DHT22;11050;52.222;20.916;2022-09-01T08:41:30;18.40;99.20
21778;DHT22;11050;52.222;20.916;2022-09-01T08:44:27;18.30;99.90
21778;DHT22;11050;52.222;20.916;2022-09-01T08:47:17;18.20;99.90
21778;DHT22;11050;52.222;20.916;2022-09-01T08:49:44;18.10;99.90
21778;DHT22;11050;52.222;20.916;2022-09-01T08:52:36;18.10;99.90
21778;DHT22;11050;52.222;20.916;2022-09-01T08:55:27;18.10;99.90
21778;DHT22;11050;52.222;20.916;2022-09-01T08:57:59;18.20;99.90
21778;DHT22;11050;52.222;20.916;2022-09-01T09:00:28;18.30;99.90
21778;DHT22;11050;52.222;20.916;2022-09-01T09:05:55;18.60;99.90
21778;DHT22;11050;52.222;20.916;2022-09-01T09:17:34;19.30;96.00
21778;DHT22;11050;52.222;20.916;2022-09-01T09:20:05;19.40;98.50
21778;DHT22;11050;52.222;20.916;2022-09-01T09:22:32;19.50;93.50
21778;DHT22;11050;52.222;20.916;2022-09-01T09:25:15;19.60;90.90
21778;DHT22;11050;52.222;20.916;2022-09-01T09:27:45;19.80;90.40
21778;DHT22;11050;52.222;20.916;2022-09-01T09:30:23;19.80;87.40
21778;DHT22;11050;52.222;20.916;2022-09-01T09:33:08;19.90;87.00
21778;DHT22;11050;52.222;20.916;2022-09-01T09:35:43;19.90;86.50
21778;DHT22;11050;52.222;20.916;2022-09-01T09:41:17;19.80;90.90
21778;DHT22;11050;52.222;20.916;2022-09-01T09:43:55;19.90;90.00
21778;DHT22;11050;52.222;20.916;2022-09-01T09:46:24;19.90;88.20
21778;DHT22;11050;52.222;20.916;2022-09-01T09:49:21;20.00;85.00
21778;DHT22;11050;52.222;20.916;2022-09-01T09:51:56;20.00;87.20
21778;DHT22;11050;52.222;20.916;2022-09-01T09:54:26;20.20;85.20
21778;DHT22;11050;52.222;20.916;2022-09-01T09:57:23;20.40;86.00
21778;DHT22;11050;52.222;20.916;2022-09-01T09:59:59;20.60;81.40
21778;DHT22;11050;52.222;20.916;2022-09-01T10:02:41;20.90;76.60
21778;DHT22;11050;52.222;20.916;2022-09-01T10:07:46;21.20;73.60
21778;DHT22;11050;52.222;20.916;2022-09-01T10:13:12;21.50;69.90
21778;DHT22;11050;52.222;20.916;2022-09-01T10:15:54;21.80;65.40
21778;DHT22;11050;52.222;20.916;2022-09-01T10:18:25;21.90;62.50
21778;DHT22;11050;52.222;20.916;2022-09-01T10:21:22;22.00;61.20
21778;DHT22;11050;52.222;20.916;2022-09-01T10:24:09;22.00;56.20
21778;DHT22;11050;52.222;20.916;2022-09-01T10:26:41;21.90;55.60
21778;DHT22;11050;52.222;20.916;2022-09-01T10:29:15;21.70;56.40
21778;DHT22;11050;52.222;20.916;2022-09-01T10:31:48;21.60;57.30
21778;DHT22;11050;52.222;20.916;2022-09-01T10:34:15;21.60;58.70
21778;DHT22;11050;52.222;20.916;2022-09-01T10:36:45;21.50;58.20
21778;DHT22;11050;52.222;20.916;2022-09-01T10:39:14;21.50;57.70
21778;DHT22;11050;52.222;20.916;2022-09-01T10:41:52;21.50;56.50
21778;DHT22;11050;52.222;20.916;2022-09-01T10:44:30;21.40;56.50
21778;DHT22;11050;52.222;20.916;2022-09-01T10:47:11;21.30;59.40
21778;DHT22;11050;52.222;20.916;2022-09-01T10:52:52;21.40;57.70
21778;DHT22;11050;52.222;20.916;2022-09-01T10:55:21;21.50;60.20
21778;DHT22;11050;52.222;20.916;2022-09-01T10:58:38;21.70;59.00
21778;DHT22;11050;52.222;20.916;2022-09-01T11:14:57;22.90;51.80
21778;DHT22;11050;52.222;20.916;2022-09-01T11:25:42;23.50;47.20
21778;DHT22;11050;52.222;20.916;2022-09-01T11:36:04;23.70;48.50
21778;DHT22;11050;52.222;20.916;2022-09-01T11:38:48;23.90;47.40
21778;DHT22;11050;52.222;20.916;2022-09-01T11:41:27;23.90;45.80
21778;DHT22;11050;52.222;20.916;2022-09-01T11:43:59;23.80;46.90
21778;DHT22;11050;52.222;20.916;2022-09-01T11:46:33;23.80;48.10
21778;DHT22;11050;52.222;20.916;2022-09-01T11:49:07;23.90;46.90
21778;DHT22;11050;52.222;20.916;2022-09-01T11:51:48;24.10;46.70
21778;DHT22;11050;52.222;20.916;2022-09-01T11:54:14;24.50;45.70
21778;DHT22;11050;52.222;20.916;2022-09-01T11:56:40;24.90;44.90
21778;DHT22;11050;52.222;20.916;2022-09-01T11:59:06;25.10;42.50
21778;DHT22;11050;52.222;20.916;2022-09-01T12:01:35;25.40;42.20
21778;DHT22;11050;52.222;20.916;2022-09-01T12:04:23;25.50;41.30
21778;DHT22;11050;52.222;20.916;2022-09-01T12:07:04;25.40;41.20
21778;DHT22;11050;52.222;20.916;2022-09-01T12:09:43;25.20;41.70
21778;DHT22;11050;52.222;20.916;2022-09-01T12:15:02;25.20;41.50
21778;DHT22;11050;52.222;20.916;2022-09-01T12:17:32;25.40;41.80
21778;DHT22;11050;52.222;20.916;2022-09-01T12:20:18;25.60;38.60
21778;DHT22;11050;52.222;20.916;2022-09-01T12:22:53;25.80;39.20
21778;DHT22;11050;52.222;20.916;2022-09-01T12:25:29;26.00;38.40
21778;DHT22;11050;52.222;20.916;2022-09-01T12:28:02;26.00;39.30
21778;DHT22;11050;52.222;20.916;2022-09-01T12:30:32;25.80;39.30
21778;DHT22;11050;52.222;20.916;2022-09-01T12:33:05;25.70;39.50
21778;DHT22;11050;52.222;20.916;2022-09-01T12:35:34;25.50;39.70
21778;DHT22;11050;52.222;20.916;2022-09-01T12:38:21;25.10;39.60
21778;DHT22;11050;52.222;20.916;2022-09-01T12:40:57;24.60;40.80
21778;DHT22;11050;52.222;20.916;2022-09-01T12:43:34;24.20;41.50
21778;DHT22;11050;52.222;20.916;2022-09-01T12:46:06;23.80;41.20
21778;DHT22;11050;52.222;20.916;2022-09-01T12:48:36;23.50;43.00
21778;DHT22;11050;52.222;20.916;2022-09-01T12:51:24;23.80;42.90
21778;DHT22;11050;52.222;20.916;2022-09-01T12:53:52;24.20;43.30
21778;DHT22;11050;52.222;20.916;2022-09-01T12:56:35;24.80;41.00
21778;DHT22;11050;52.222;20.916;2022-09-01T12:59:24;25.50;40.90
21778;DHT22;11050;52.222;20.916;2022-09-01T13:01:51;26.00;39.60
21778;DHT22;11050;52.222;20.916;2022-09-01T13:06:46;27.10;37.60
21778;DHT22;11050;52.222;20.916;2022-09-01T13:09:13;27.50;37.30
21778;DHT22;11050;52.222;20.916;2022-09-01T13:11:40;28.10;35.40
21778;DHT22;11050;52.222;20.916;2022-09-01T13:14:07;28.60;34.20
21778;DHT22;11050;52.222;20.916;2022-09-01T13:16:34;28.90;33.90
21778;DHT22;11050;52.222;20.916;2022-09-01T13:19:02;29.30;32.50
21778;DHT22;11050;52.222;20.916;2022-09-01T13:21:29;29.60;31.70
21778;DHT22;11050;52.222;20.916;2022-09-01T13:23:56;29.60;31.30
21778;DHT22;11050;52.222;20.916;2022-09-01T13:26:22;29.40;31.80
21778;DHT22;11050;52.222;20.916;2022-09-01T13:28:49;28.90;32.40
21778;DHT22;11050;52.222;20.916;2022-09-01T13:31:15;28.10;33.10
21778;DHT22;11050;52.222;20.916;2022-09-01T13:33:41;27.50;35.00
21778;DHT22;11050;52.222;20.916;2022-09-01T13:36:07;26.60;35.90
21778;DHT22;11050;52.222;20.916;2022-09-01T13:38:33;25.80;37.40
21778;DHT22;11050;52.222;20.916;2022-09-01T13:40:59;25.00;38.70
21778;DHT22;11050;52.222;20.916;2022-09-01T13:43:26;24.50;40.30
21778;DHT22;11050;52.222;20.916;2022-09-01T13:45:53;24.00;41.70
21778;DHT22;11050;52.222;20.916;2022-09-01T13:48:19;23.70;43.20
21778;DHT22;11050;52.222;20.916;2022-09-01T13:50:47;23.40;44.20
21778;DHT22;11050;52.222;20.916;2022-09-01T13:53:17;23.20;44.40
21778;DHT22;11050;52.222;20.916;2022-09-01T13:55:43;23.00;44.50
21778;DHT22;11050;52.222;20.916;2022-09-01T13:58:09;22.80;44.70
21778;DHT22;11050;52.222;20.916;2022-09-01T14:00:39;22.80;44.70
21778;DHT22;11050;52.222;20.916;2022-09-01T14:03:10;23.10;44.50
21778;DHT22;11050;52.222;20.916;2022-09-01T14:05:41;23.70;44.10
21778;DHT22;11050;52.222;20.916;2022-09-01T14:08:10;24.40;41.60
21778;DHT22;11050;52.222;20.916;2022-09-01T14:10:41;24.70;39.80
21778;DHT22;11050;52.222;20.916;2022-09-01T14:13:10;24.80;40.20
21778;DHT22;11050;52.222;20.916;2022-09-01T14:15:37;24.80;40.30
21778;DHT22;11050;52.222;20.916;2022-09-01T14:18:04;24.50;41.60
21778;DHT22;11050;52.222;20.916;2022-09-01T14:20:33;24.30;42.60
21778;DHT22;11050;52.222;20.916;2022-09-01T14:23:04;24.00;42.30
21778;DHT22;11050;52.222;20.916;2022-09-01T14:25:32;23.70;43.30
21778;DHT22;11050;52.222;20.916;2022-09-01T14:27:59;23.30;43.10
21778;DHT22;11050;52.222;20.916;2022-09-01T14:30:28;22.90;44.30
21778;DHT22;11050;52.222;20.916;2022-09-01T14:32:55;22.80;45.40
21778;DHT22;11050;52.222;20.916;2022-09-01T14:35:22;22.70;45.90
21778;DHT22;11050;52.222;20.916;2022-09-01T14:37:50;22.90;46.30
21778;DHT22;11050;52.222;20.916;2022-09-01T14:40:20;23.50;45.60
21778;DHT22;11050;52.222;20.916;2022-09-01T14:42:49;24.20;44.00
21778;DHT22;11050;52.222;20.916;2022-09-01T14:45:18;24.90;42.80
21778;DHT22;11050;52.222;20.916;2022-09-01T14:47:47;25.60;41.10
21778;DHT22;11050;52.222;20.916;2022-09-01T14:50:16;25.90;40.10
21778;DHT22;11050;52.222;20.916;2022-09-01T14:52:45;26.10;38.40
21778;DHT22;11050;52.222;20.916;2022-09-01T14:55:11;26.40;39.70
21778;DHT22;11050;52.222;20.916;2022-09-01T14:57:37;26.60;37.90
21778;DHT22;11050;52.222;20.916;2022-09-01T15:00:06;26.80;35.90
21778;DHT22;11050;52.222;20.916;2022-09-01T15:02:37;27.20;35.60
21778;DHT22;11050;52.222;20.916;2022-09-01T15:05:06;27.50;34.00
21778;DHT22;11050;52.222;20.916;2022-09-01T15:07:32;27.90;33.20
21778;DHT22;11050;52.222;20.916;2022-09-01T15:09:59;28.30;32.80
21778;DHT22;11050;52.222;20.916;2022-09-01T15:12:25;28.70;31.80
21778;DHT22;11050;52.222;20.916;2022-09-01T15:14:57;29.00;31.30
21778;DHT22;11050;52.222;20.916;2022-09-01T15:17:25;29.30;31.90
21778;DHT22;11050;52.222;20.916;2022-09-01T15:19:52;29.60;30.70
21778;DHT22;11050;52.222;20.916;2022-09-01T15:22:17;29.90;30.70
21778;DHT22;11050;52.222;20.916;2022-09-01T15:24:43;30.10;30.10
21778;DHT22;11050;52.222;20.916;2022-09-01T15:27:10;30.30;29.90
21778;DHT22;11050;52.222;20.916;2022-09-01T15:29:36;30.60;30.30
21778;DHT22;11050;52.222;20.916;2022-09-01T15:32:11;30.90;29.70
21778;DHT22;11050;52.222;20.916;2022-09-01T15:34:38;31.00;30.10
21778;DHT22;11050;52.222;20.916;2022-09-01T15:37:04;31.10;29.00
21778;DHT22;11050;52.222;20.916;2022-09-01T15:39:32;30.90;29.00
21778;DHT22;11050;52.222;20.916;2022-09-01T15:41:58;30.80;29.30
21778;DHT22;11050;52.222;20.916;2022-09-01T15:44:24;30.60;29.30
21778;DHT22;11050;52.222;20.916;2022-09-01T15:46:50;30.30;29.80
21778;DHT22;11050;52.222;20.916;2022-09-01T15:49:16;30.30;30.10
21778;DHT22;11050;52.222;20.916;2022-09-01T15:51:43;30.30;30.00
21778;DHT22;11050;52.222;20.916;2022-09-01T15:54:16;30.30;29.60
21778;DHT22;11050;52.222;20.916;2022-09-01T15:56:43;30.30;29.60
21778;DHT22;11050;52.222;20.916;2022-09-01T15:59:11;30.20;29.50
21778;DHT22;11050;52.222;20.916;2022-09-01T16:01:40;30.20;29.70
21778;DHT22;11050;52.222;20.916;2022-09-01T16:04:10;30.20;30.00
21778;DHT22;11050;52.222;20.916;2022-09-01T16:06:37;30.20;30.20
21778;DHT22;11050;52.222;20.916;2022-09-01T16:09:05;30.20;30.00
21778;DHT22;11050;52.222;20.916;2022-09-01T16:11:31;30.10;29.70
21778;DHT22;11050;52.222;20.916;2022-09-01T16:13:57;30.00;29.80
21778;DHT22;11050;52.222;20.916;2022-09-01T16:17:16;29.80;29.90
21778;DHT22;11050;52.222;20.916;2022-09-01T16:24:59;29.20;30.50
21778;DHT22;11050;52.222;20.916;2022-09-01T16:27:40;29.20;30.80
21778;DHT22;11050;52.222;20.916;2022-09-01T16:30:11;29.20;31.20
21778;DHT22;11050;52.222;20.916;2022-09-01T16:32:47;29.00;31.10
21778;DHT22;11050;52.222;20.916;2022-09-01T16:35:15;29.00;31.00
21778;DHT22;11050;52.222;20.916;2022-09-01T17:00:05;27.50;33.60
21778;DHT22;11050;52.222;20.916;2022-09-01T17:03:05;27.20;34.00
21778;DHT22;11050;52.222;20.916;2022-09-01T17:08:31;26.80;34.90
21778;DHT22;11050;52.222;20.916;2022-09-01T17:13:51;26.20;36.40
21778;DHT22;11050;52.222;20.916;2022-09-01T17:16:28;25.70;36.80
21778;DHT22;11050;52.222;20.916;2022-09-01T17:19:08;25.10;37.50